sensor_id;sensor_type;location;lat;lon;timestamp;temperature;humidity
5200;DHT22;2619;47.868;11.892;2022-11-20T00:01:47;3.60;99.90
5200;DHT22;2619;47.868;11.892;2022-11-20T00:04:13;3.70;99.90
5200;DHT22;2619;47.868;11.892;2022-11-20T00:06:38;3.70;99.90
5200;DHT22;2619;47.868;11.892;2022-11-20T00:09:04;3.60;99.90
5200;DHT22;2619;47.868;11.892;2022-11-20T00:11:31;3.60;99.90
5200;DHT22;2619;47.868;11.892;2022-11-20T00:14:00;3.70;99.90
5200;DHT22;2619;47.868;11.892;2022-11-20T00:16:29;3.70;99.90
5200;DHT22;2619;47.868;11.892;2022-11-20T00:18:55;3.60;99.90
5200;DHT22;2619;47.868;11.892;2022-11-20T00:21:26;3.60;99.90
5200;DHT22;2619;47.868;11.892;2022-11-20T00:23:54;3.70;99.90
5200;DHT22;2619;47.868;11.892;2022-11-20T00:26:22;3.70;99.90
5200;DHT22;2619;47.868;11.892;2022-11-20T00:28:55;3.80;99.90
5200;DHT22;2619;47.868;11.892;2022-11-20T00:31:21;3.80;99.90
5200;DHT22;2619;47.868;11.892;2022-11-20T00:33:47;3.80;99.90
5200;DHT22;2619;47.868;11.892;2022-11-20T00:36:15;3.80;99.90
5200;DHT22;2619;47.868;11.892;2022-11-20T00:38:41;3.80;99.90
5200;DHT22;2619;47.868;11.892;2022-11-20T00:41:08;3.80;99.90
5200;DHT22;2619;47.868;11.892;2022-11-20T00:43:34;3.80;99.90
5200;DHT22;2619;47.868;11.892;2022-11-20T00:46:03;3.70;99.90
5200;DHT22;2619;47.868;11.892;2022-11-20T00:48:29;3.60;99.90
5200;DHT22;2619;47.868;11.892;2022-11-20T00:50:55;3.60;99.90
5200;DHT22;2619;47.868;11.892;2022-11-20T00:53:21;3.70;99.90
5200;DHT22;2619;47.868;11.892;2022-11-20T00:55:59;3.80;99.90
5200;DHT22;2619;47.868;11.892;2022-11-20T00:58:30;3.80;99.90
5200;DHT22;2619;47.868;11.892;2022-11-20T01:01:07;3.90;99.90
5200;DHT22;2619;47.868;11.892;2022-11-20T01:03:35;3.90;99.90
5200;DHT22;2619;47.868;11.892;2022-11-20T01:06:07;3.90;99.90
5200;DHT22;2619;47.868;11.892;2022-11-20T01:08:34;4.00;99.90
5200;DHT22;2619;47.868;11.892;2022-11-20T01:11:05;4.00;99.90
5200;DHT22;2619;47.868;11.892;2022-11-20T01:13:31;4.00;99.90
5200;DHT22;2619;47.868;11.892;2022-11-20T01:16:32;4.10;99.90
5200;DHT22;2619;47.868;11.892;2022-11-20T01:19:00;4.10;99.90
5200;DHT22;2619;47.868;11.892;2022-11-20T01:21:28;4.20;99.90
5200;DHT22;2619;47.868;11.892;2022-11-20T01:23:54;4.30;99.90
5200;DHT22;2619;47.868;11.892;2022-11-20T01:26:25;4.40;99.90
5200;DHT22;2619;47.868;11.892;2022-11-20T01:28:51;4.40;99.90
5200;DHT22;2619;47.868;11.892;2022-11-20T01:31:19;4.50;99.90
5200;DHT22;2619;47.868;11.892;2022-11-20T01:33:47;4.60;99.90
5200;DHT22;2619;47.868;11.892;2022-11-20T01:36:14;4.80;99.90
5200;DHT22;2619;47.868;11.892;2022-11-20T01:38:40;4.80;99.90
5200;DHT22;2619;47.868;11.892;2022-11-20T01:41:07;4.90;99.90
5200;DHT22;2619;47.868;11.892;2022-11-20T01:43:33;4.90;99.90
5200;DHT22;2619;47.868;11.892;2022-11-20T01:46:05;5.00;99.90
5200;DHT22;2619;47.868;11.892;2022-11-20T01:48:38;5.10;99.90
5200;DHT22;2619;47.868;11.892;2022-11-20T01:51:15;5.10;99.90
5200;DHT22;2619;47.868;11.892;2022-11-20T01:53:42;5.10;99.90
5200;DHT22;2619;47.868;11.892;2022-11-20T01:56:10;5.10;99.90
5200;DHT22;2619;47.868;11.892;2022-11-20T01:58:41;5.20;99.90
5200;DHT22;2619;47.868;11.892;2022-11-20T02:01:08;5.20;99.90
5200;DHT22;2619;47.868;11.892;2022-11-20T02:03:34;5.20;99.90
5200;DHT22;2619;47.868;11.892;2022-11-20T02:08:34;5.10;99.90
5200;DHT22;2619;47.868;11.892;2022-11-20T02:11:00;5.10;99.90
5200;DHT22;2619;47.868;11.892;2022-11-20T02:13:26;5.10;99.90
5200;DHT22;2619;47.868;11.892;2022-11-20T02:18:45;5.00;99.90
5200;DHT22;2619;47.868;11.892;2022-11-20T02:26:32;5.00;99.90
5200;DHT22;2619;47.868;11.892;2022-11-20T02:29:00;5.00;99.90
5200;DHT22;2619;47.868;11.892;2022-11-20T02:31:26;5.00;99.90
5200;DHT22;2619;47.868;11.892;2022-11-20T02:33:56;5.00;99.90
5200;DHT22;2619;47.868;11.892;2022-11-20T02:36:24;5.00;99.90
5200;DHT22;2619;47.868;11.892;2022-11-20T02:38:51;5.00;99.90
5200;DHT22;2619;47.868;11.892;2022-11-20T02:41:17;5.00;99.90
5200;DHT22;2619;47.868;11.892;2022-11-20T02:43:43;5.10;99.90
5200;DHT22;2619;47.868;11.892;2022-11-20T02:46:08;5.00;99.90
5200;DHT22;2619;47.868;11.892;2022-11-20T02:48:34;5.00;99.90
5200;DHT22;2619;47.868;11.892;2022-11-20T02:51:01;5.00;99.90
5200;DHT22;2619;47.868;11.892;2022-11-20T02:53:26;5.00;99.90
5200;DHT22;2619;47.868;11.892;2022-11-20T02:55:52;4.90;99.90
5200;DHT22;2619;47.868;11.892;2022-11-20T02:58:18;4.90;99.90
5200;DHT22;2619;47.868;11.892;2022-11-20T03:00:43;4.90;99.90
5200;DHT22;2619;47.868;11.892;2022-11-20T03:03:09;4.80;99.90
5200;DHT22;2619;47.868;11.892;2022-11-20T03:05:35;4.70;99.90
5200;DHT22;2619;47.868;11.892;2022-11-20T03:08:00;4.60;99.90
5200;DHT22;2619;47.868;11.892;2022-11-20T03:10:26;4.50;99.90
5200;DHT22;2619;47.868;11.892;2022-11-20T03:12:54;4.40;99.90
5200;DHT22;2619;47.868;11.892;2022-11-20T03:15:23;4.30;99.90
5200;DHT22;2619;47.868;11.892;2022-11-20T03:17:52;4.20;99.90
5200;DHT22;2619;47.868;11.892;2022-11-20T03:20:18;4.20;99.90
5200;DHT22;2619;47.868;11.892;2022-11-20T03:22:43;4.10;99.90
5200;DHT22;2619;47.868;11.892;2022-11-20T03:25:09;4.00;99.90
5200;DHT22;2619;47.868;11.892;2022-11-20T03:27:35;4.00;99.90
5200;DHT22;2619;47.868;11.892;2022-11-20T03:30:01;4.00;99.90
5200;DHT22;2619;47.868;11.892;2022-11-20T03:32:26;4.00;99.90
5200;DHT22;2619;47.868;11.892;2022-11-20T03:34:52;4.00;99.90
5200;DHT22;2619;47.868;11.892;2022-11-20T03:37:17;4.10;99.90
5200;DHT22;2619;47.868;11.892;2022-11-20T03:39:43;4.10;99.90
5200;DHT22;2619;47.868;11.892;2022-11-20T03:42:09;4.20;99.90
5200;DHT22;2619;47.868;11.892;2022-11-20T03:44:55;4.30;99.90
5200;DHT22;2619;47.868;11.892;2022-11-20T03:47:20;4.40;99.90
5200;DHT22;2619;47.868;11.892;2022-11-20T03:49:46;4.40;99.90
5200;DHT22;2619;47.868;11.892;2022-11-20T03:52:12;4.40;99.90
5200;DHT22;2619;47.868;11.892;2022-11-20T03:54:37;4.40;99.90
5200;DHT22;2619;47.868;11.892;2022-11-20T03:57:03;4.40;99.90
5200;DHT22;2619;47.868;11.892;2022-11-20T03:59:28;4.40;99.90
5200;DHT22;2619;47.868;11.892;2022-11-20T04:01:54;4.30;99.90
5200;DHT22;2619;47.868;11.892;2022-11-20T04:04:19;4.30;99.90
5200;DHT22;2619;47.868;11.892;2022-11-20T04:06:45;4.30;99.90
5200;DHT22;2619;47.868;11.892;2022-11-20T04:09:11;4.30;99.90
5200;DHT22;2619;47.868;11.892;2022-11-20T04:11:39;4.40;99.90
5200;DHT22;2619;47.868;11.892;2022-11-20T04:14:05;4.30;99.90
5200;DHT22;2619;47.868;11.892;2022-11-20T04:16:34;4.30;99.90
5200;DHT22;2619;47.868;11.892;2022-11-20T04:19:03;4.40;99.90
5200;DHT22;2619;47.868;11.892;2022-11-20T04:21:29;4.40;99.90
5200;DHT22;2619;47.868;11.892;2022-11-20T04:23:55;4.50;99.90
5200;DHT22;2619;47.868;11.892;2022-11-20T04:26:22;4.50;99.90
5200;DHT22;2619;47.868;11.892;2022-11-20T04:28:48;4.50;99.90
5200;DHT22;2619;47.868;11.892;2022-11-20T04:31:17;4.60;99.90
5200;DHT22;2619;47.868;11.892;2022-11-20T04:33:43;4.60;99.90
5200;DHT22;2619;47.868;11.892;2022-11-20T04:36:13;4.70;99.90
5200;DHT22;2619;47.868;11.892;2022-11-20T04:38:40;4.70;99.90
5200;DHT22;2619;47.868;11.892;2022-11-20T04:41:15;4.70;99.90
5200;DHT22;2619;47.868;11.892;2022-11-20T04:43:41;4.70;99.90
5200;DHT22;2619;47.868;11.892;2022-11-20T04:46:07;4.70;99.90
5200;DHT22;2619;47.868;11.892;2022-11-20T04:48:32;4.70;99.90
5200;DHT22;2619;47.868;11.892;2022-11-20T04:51:03;4.70;99.90
5200;DHT22;2619;47.868;11.892;2022-11-20T04:53:29;4.70;99.90
5200;DHT22;2619;47.868;11.892;2022-11-20T04:56:02;4.80;99.90
5200;DHT22;2619;47.868;11.892;2022-11-20T04:58:29;4.80;99.90
5200;DHT22;2619;47.868;11.892;2022-11-20T05:01:01;4.80;99.90
5200;DHT22;2619;47.868;11.892;2022-11-20T05:03:27;4.90;99.90
5200;DHT22;2619;47.868;11.892;2022-11-20T05:05:53;5.00;99.90
5200;DHT22;2619;47.868;11.892;2022-11-20T05:08:18;5.00;99.90
5200;DHT22;2619;47.868;11.892;2022-11-20T05:10:44;5.00;99.90
5200;DHT22;2619;47.868;11.892;2022-11-20T05:13:09;5.00;99.90
5200;DHT22;2619;47.868;11.892;2022-11-20T05:15:35;5.10;99.90
5200;DHT22;2619;47.868;11.892;2022-11-20T05:18:00;5.10;99.90
5200;DHT22;2619;47.868;11.892;2022-11-20T05:20:26;5.10;99.90
5200;DHT22;2619;47.868;11.892;2022-11-20T05:22:52;5.10;99.90
5200;DHT22;2619;47.868;11.892;2022-11-20T05:25:17;5.10;99.90
5200;DHT22;2619;47.868;11.892;2022-11-20T05:27:43;5.10;99.90
5200;DHT22;2619;47.868;11.892;2022-11-20T05:30:09;5.10;99.90
5200;DHT22;2619;47.868;11.892;2022-11-20T05:32:35;5.10;99.90
5200;DHT22;2619;47.868;11.892;2022-11-20T05:35:00;5.10;99.90
5200;DHT22;2619;47.868;11.892;2022-11-20T05:37:26;5.10;99.90
5200;DHT22;2619;47.868;11.892;2022-11-20T05:39:52;5.10;99.90
5200;DHT22;2619;47.868;11.892;2022-11-20T05:42:17;5.00;99.90
5200;DHT22;2619;47.868;11.892;2022-11-20T05:44:59;5.00;99.90
5200;DHT22;2619;47.868;11.892;2022-11-20T05:47:25;5.00;99.90
5200;DHT22;2619;47.868;11.892;2022-11-20T05:49:51;5.00;99.90
5200;DHT22;2619;47.868;11.892;2022-11-20T05:52:17;5.00;99.90
5200;DHT22;2619;47.868;11.892;2022-11-20T05:54:42;5.00;99.90
5200;DHT22;2619;47.868;11.892;2022-11-20T05:57:08;4.90;99.90
5200;DHT22;2619;47.868;11.892;2022-11-20T05:59:33;4.90;99.90
5200;DHT22;2619;47.868;11.892;2022-11-20T06:01:59;4.80;99.90
5200;DHT22;2619;47.868;11.892;2022-11-20T06:04:24;4.80;99.90
5200;DHT22;2619;47.868;11.892;2022-11-20T06:06:50;4.80;99.90
5200;DHT22;2619;47.868;11.892;2022-11-20T06:09:16;4.90;99.90
5200;DHT22;2619;47.868;11.892;2022-11-20T06:11:41;4.90;99.90
5200;DHT22;2619;47.868;11.892;2022-11-20T06:14:07;5.00;99.90
5200;DHT22;2619;47.868;11.892;2022-11-20T06:16:32;5.00;99.90
5200;DHT22;2619;47.868;11.892;2022-11-20T06:18:58;5.10;99.90
5200;DHT22;2619;47.868;11.892;2022-11-20T06:21:24;5.10;99.90
5200;DHT22;2619;47.868;11.892;2022-11-20T06:23:50;5.10;99.90
5200;DHT22;2619;47.868;11.892;2022-11-20T06:26:20;5.10;99.90
5200;DHT22;2619;47.868;11.892;2022-11-20T06:28:46;5.10;99.90
5200;DHT22;2619;47.868;11.892;2022-11-20T06:31:14;5.10;99.90
5200;DHT22;2619;47.868;11.892;2022-11-20T06:33:40;5.10;99.90
5200;DHT22;2619;47.868;11.892;2022-11-20T06:36:06;5.10;99.90
5200;DHT22;2619;47.868;11.892;2022-11-20T06:38:32;5.20;99.90
5200;DHT22;2619;47.868;11.892;2022-11-20T06:40:58;5.20;99.90
5200;DHT22;2619;47.868;11.892;2022-11-20T06:43:24;5.20;99.90
5200;DHT22;2619;47.868;11.892;2022-11-20T06:45:54;5.20;99.90
5200;DHT22;2619;47.868;11.892;2022-11-20T06:48:21;5.10;99.90
5200;DHT22;2619;47.868;11.892;2022-11-20T06:50:47;5.10;99.90
5200;DHT22;2619;47.868;11.892;2022-11-20T06:53:13;5.10;99.90
5200;DHT22;2619;47.868;11.892;2022-11-20T06:55:42;5.00;99.90
5200;DHT22;2619;47.868;11.892;2022-11-20T06:58:09;5.00;99.90
5200;DHT22;2619;47.868;11.892;2022-11-20T07:00:35;4.90;99.90
5200;DHT22;2619;47.868;11.892;2022-11-20T07:03:04;4.90;99.90
5200;DHT22;2619;47.868;11.892;2022-11-20T07:05:30;4.90;99.90
5200;DHT22;2619;47.868;11.892;2022-11-20T07:07:56;4.90;99.90
5200;DHT22;2619;47.868;11.892;2022-11-20T07:10:22;4.80;99.90
5200;DHT22;2619;47.868;11.892;2022-11-20T07:12:52;4.70;99.90
5200;DHT22;2619;47.868;11.892;2022-11-20T07:15:23;4.60;99.90
5200;DHT22;2619;47.868;11.892;2022-11-20T07:17:48;4.50;99.90
5200;DHT22;2619;47.868;11.892;2022-11-20T07:20:15;4.50;99.90
5200;DHT22;2619;47.868;11.892;2022-11-20T07:22:41;4.50;99.90
5200;DHT22;2619;47.868;11.892;2022-11-20T07:25:07;4.40;99.90
5200;DHT22;2619;47.868;11.892;2022-11-20T07:27:32;4.40;99.90
5200;DHT22;2619;47.868;11.892;2022-11-20T07:29:58;4.50;99.90
5200;DHT22;2619;47.868;11.892;2022-11-20T07:32:24;4.50;99.90
5200;DHT22;2619;47.868;11.892;2022-11-20T07:34:50;4.60;99.90
5200;DHT22;2619;47.868;11.892;2022-11-20T07:37:16;4.60;99.90
5200;DHT22;2619;47.868;11.892;2022-11-20T07:39:42;4.60;99.90
5200;DHT22;2619;47.868;11.892;2022-11-20T07:42:08;4.60;99.90
5200;DHT22;2619;47.868;11.892;2022-11-20T07:44:34;4.70;99.90
5200;DHT22;2619;47.868;11.892;2022-11-20T07:47:00;4.90;99.90
5200;DHT22;2619;47.868;11.892;2022-11-20T07:49:26;5.10;99.90
5200;DHT22;2619;47.868;11.892;2022-11-20T07:51:51;5.20;99.90
5200;DHT22;2619;47.868;11.892;2022-11-20T07:54:19;5.40;99.90
5200;DHT22;2619;47.868;11.892;2022-11-20T07:56:45;5.40;99.90
5200;DHT22;2619;47.868;11.892;2022-11-20T07:59:11;5.40;99.90
5200;DHT22;2619;47.868;11.892;2022-11-20T08:01:37;5.50;99.90
5200;DHT22;2619;47.868;11.892;2022-11-20T08:04:03;5.60;99.90
5200;DHT22;2619;47.868;11.892;2022-11-20T08:06:29;5.60;99.90
5200;DHT22;2619;47.868;11.892;2022-11-20T08:08:54;5.70;99.90
5200;DHT22;2619;47.868;11.892;2022-11-20T08:11:20;5.70;99.90
5200;DHT22;2619;47.868;11.892;2022-11-20T08:14:04;5.70;99.90
5200;DHT22;2619;47.868;11.892;2022-11-20T08:19:05;5.80;99.90
5200;DHT22;2619;47.868;11.892;2022-11-20T08:21:30;5.90;99.90
5200;DHT22;2619;47.868;11.892;2022-11-20T08:23:57;6.00;99.90
5200;DHT22;2619;47.868;11.892;2022-11-20T08:26:23;6.00;99.90
5200;DHT22;2619;47.868;11.892;2022-11-20T08:28:52;6.10;99.90
5200;DHT22;2619;47.868;11.892;2022-11-20T08:31:20;6.20;99.90
5200;DHT22;2619;47.868;11.892;2022-11-20T08:33:46;6.40;99.90
5200;DHT22;2619;47.868;11.892;2022-11-20T08:36:12;6.50;99.90
5200;DHT22;2619;47.868;11.892;2022-11-20T08:38:37;6.70;99.90
5200;DHT22;2619;47.868;11.892;2022-11-20T08:41:04;6.90;99.90
5200;DHT22;2619;47.868;11.892;2022-11-20T08:44:00;7.20;99.90
5200;DHT22;2619;47.868;11.892;2022-11-20T08:46:31;7.50;99.90
5200;DHT22;2619;47.868;11.892;2022-11-20T08:48:58;7.60;99.90
5200;DHT22;2619;47.868;11.892;2022-11-20T08:51:24;7.60;99.90
5200;DHT22;2619;47.868;11.892;2022-11-20T08:53:49;7.70;99.90
5200;DHT22;2619;47.868;11.892;2022-11-20T08:56:15;7.90;99.90
5200;DHT22;2619;47.868;11.892;2022-11-20T08:58:41;8.00;99.90
5200;DHT22;2619;47.868;11.892;2022-11-20T09:01:07;8.00;99.90
5200;DHT22;2619;47.868;11.892;2022-11-20T09:03:33;8.10;99.90
5200;DHT22;2619;47.868;11.892;2022-11-20T09:06:00;8.10;99.90
5200;DHT22;2619;47.868;11.892;2022-11-20T09:08:26;8.00;99.90
5200;DHT22;2619;47.868;11.892;2022-11-20T09:10:52;8.10;99.90
5200;DHT22;2619;47.868;11.892;2022-11-20T09:13:19;8.00;99.90
5200;DHT22;2619;47.868;11.892;2022-11-20T09:15:45;8.10;99.90
5200;DHT22;2619;47.868;11.892;2022-11-20T09:18:10;8.00;99.90
5200;DHT22;2619;47.868;11.892;2022-11-20T09:20:36;8.00;99.90
5200;DHT22;2619;47.868;11.892;2022-11-20T09:23:02;8.10;99.90
5200;DHT22;2619;47.868;11.892;2022-11-20T09:25:27;8.40;99.90
5200;DHT22;2619;47.868;11.892;2022-11-20T09:27:59;8.60;99.90
5200;DHT22;2619;47.868;11.892;2022-11-20T09:30:26;9.00;99.90
5200;DHT22;2619;47.868;11.892;2022-11-20T09:32:52;9.10;99.90
5200;DHT22;2619;47.868;11.892;2022-11-20T09:35:18;9.00;99.90
5200;DHT22;2619;47.868;11.892;2022-11-20T09:37:44;9.00;99.90
5200;DHT22;2619;47.868;11.892;2022-11-20T09:40:27;9.00;99.90
5200;DHT22;2619;47.868;11.892;2022-11-20T09:45:48;9.20;99.90
5200;DHT22;2619;47.868;11.892;2022-11-20T09:48:35;9.10;99.90
5200;DHT22;2619;47.868;11.892;2022-11-20T09:56:44;9.00;99.90
5200;DHT22;2619;47.868;11.892;2022-11-20T10:01:54;8.80;99.90
5200;DHT22;2619;47.868;11.892;2022-11-20T10:04:21;8.80;99.90
5200;DHT22;2619;47.868;11.892;2022-11-20T10:06:50;8.80;99.90
5200;DHT22;2619;47.868;11.892;2022-11-20T10:09:35;9.10;99.90
5200;DHT22;2619;47.868;11.892;2022-11-20T10:17:11;9.40;99.90
5200;DHT22;2619;47.868;11.892;2022-11-20T10:25:39;9.90;99.90
5200;DHT22;2619;47.868;11.892;2022-11-20T10:28:41;9.90;99.90
5200;DHT22;2619;47.868;11.892;2022-11-20T10:31:25;9.40;99.90
5200;DHT22;2619;47.868;11.892;2022-11-20T10:33:53;9.20;99.90
5200;DHT22;2619;47.868;11.892;2022-11-20T10:36:34;9.10;99.90
5200;DHT22;2619;47.868;11.892;2022-11-20T10:39:07;9.10;99.90
5200;DHT22;2619;47.868;11.892;2022-11-20T10:41:41;9.20;99.90
5200;DHT22;2619;47.868;11.892;2022-11-20T10:44:19;9.30;99.90
5200;DHT22;2619;47.868;11.892;2022-11-20T10:47:09;9.20;99.90
5200;DHT22;2619;47.868;11.892;2022-11-20T10:49:37;9.30;99.90
5200;DHT22;2619;47.868;11.892;2022-11-20T10:52:13;9.40;99.90
5200;DHT22;2619;47.868;11.892;2022-11-20T11:00:11;9.90;99.90
5200;DHT22;2619;47.868;11.892;2022-11-20T11:02:50;10.00;99.90
5200;DHT22;2619;47.868;11.892;2022-11-20T11:05:49;10.00;99.90
5200;DHT22;2619;47.868;11.892;2022-11-20T11:08:18;10.00;99.90
5200;DHT22;2619;47.868;11.892;2022-11-20T11:10:46;10.00;99.90
5200;DHT22;2619;47.868;11.892;2022-11-20T11:13:24;10.10;99.90
5200;DHT22;2619;47.868;11.892;2022-11-20T11:18:30;10.00;99.90
5200;DHT22;2619;47.868;11.892;2022-11-20T11:20:57;9.70;99.90
5200;DHT22;2619;47.868;11.892;2022-11-20T11:23:38;9.30;99.90
5200;DHT22;2619;47.868;11.892;2022-11-20T11:26:20;9.20;99.90
5200;DHT22;2619;47.868;11.892;2022-11-20T11:28:59;9.40;99.90
5200;DHT22;2619;47.868;11.892;2022-11-20T11:31:34;9.50;99.90
5200;DHT22;2619;47.868;11.892;2022-11-20T11:34:10;9.50;99.90
5200;DHT22;2619;47.868;11.892;2022-11-20T11:36:37;9.50;99.90
5200;DHT22;2619;47.868;11.892;2022-11-20T11:39:05;9.50;99.90
5200;DHT22;2619;47.868;11.892;2022-11-20T11:41:33;9.40;99.90
5200;DHT22;2619;47.868;11.892;2022-11-20T11:47:00;9.70;99.90
5200;DHT22;2619;47.868;11.892;2022-11-20T11:49:27;10.00;99.90
5200;DHT22;2619;47.868;11.892;2022-11-20T11:52:10;10.10;99.90
5200;DHT22;2619;47.868;11.892;2022-11-20T12:07:48;9.50;99.90
5200;DHT22;2619;47.868;11.892;2022-11-20T12:10:34;9.40;99.90
5200;DHT22;2619;47.868;11.892;2022-11-20T12:16:13;9.30;99.90
5200;DHT22;2619;47.868;11.892;2022-11-20T12:18:39;9.40;99.90
5200;DHT22;2619;47.868;11.892;2022-11-20T12:26:53;9.60;99.90
5200;DHT22;2619;47.868;11.892;2022-11-20T12:32:30;9.60;99.90
5200;DHT22;2619;47.868;11.892;2022-11-20T12:43:19;9.80;99.90
5200;DHT22;2619;47.868;11.892;2022-11-20T13:08:38;9.30;99.90
5200;DHT22;2619;47.868;11.892;2022-11-20T13:14:04;9.20;99.90
5200;DHT22;2619;47.868;11.892;2022-11-20T13:19:34;9.00;99.90
5200;DHT22;2619;47.868;11.892;2022-11-20T13:22:00;9.00;99.90
5200;DHT22;2619;47.868;11.892;2022-11-20T13:24:31;9.00;99.90
5200;DHT22;2619;47.868;11.892;2022-11-20T13:29:42;8.80;99.90
5200;DHT22;2619;47.868;11.892;2022-11-20T13:32:15;8.80;99.90
5200;DHT22;2619;47.868;11.892;2022-11-20T13:35:01;8.80;99.90
5200;DHT22;2619;47.868;11.892;2022-11-20T13:37:33;8.70;99.90
5200;DHT22;2619;47.868;11.892;2022-11-20T13:40:13;8.70;99.90
5200;DHT22;2619;47.868;11.892;2022-11-20T13:42:44;8.70;99.90
5200;DHT22;2619;47.868;11.892;2022-11-20T13:45:22;8.60;99.90
5200;DHT22;2619;47.868;11.892;2022-11-20T13:47:50;8.60;99.90
5200;DHT22;2619;47.868;11.892;2022-11-20T13:50:16;8.40;99.90
5200;DHT22;2619;47.868;11.892;2022-11-20T13:52:51;8.10;99.90
5200;DHT22;2619;47.868;11.892;2022-11-20T13:55:38;7.70;99.90
5200;DHT22;2619;47.868;11.892;2022-11-20T14:01:00;7.30;99.90
5200;DHT22;2619;47.868;11.892;2022-11-20T14:03:30;7.00;99.90
5200;DHT22;2619;47.868;11.892;2022-11-20T14:06:01;6.90;99.90
5200;DHT22;2619;47.868;11.892;2022-11-20T14:08:36;6.90;99.90
5200;DHT22;2619;47.868;11.892;2022-11-20T14:13:30;7.10;99.90
5200;DHT22;2619;47.868;11.892;2022-11-20T14:15:59;7.10;99.90
5200;DHT22;2619;47.868;11.892;2022-11-20T14:18:26;7.20;99.90
5200;DHT22;2619;47.868;11.892;2022-11-20T14:20:52;7.20;99.90
5200;DHT22;2619;47.868;11.892;2022-11-20T14:23:26;7.20;99.90
5200;DHT22;2619;47.868;11.892;2022-11-20T14:25:52;7.30;99.90
5200;DHT22;2619;47.868;11.892;2022-11-20T14:28:27;7.40;99.90
5200;DHT22;2619;47.868;11.892;2022-11-20T14:30:53;7.40;99.90
5200;DHT22;2619;47.868;11.892;2022-11-20T14:33:19;7.50;99.90
5200;DHT22;2619;47.868;11.892;2022-11-20T14:35:54;7.60;99.90
5200;DHT22;2619;47.868;11.892;2022-11-20T14:38:24;7.50;99.90
5200;DHT22;2619;47.868;11.892;2022-11-20T14:40:51;7.50;99.90
5200;DHT22;2619;47.868;11.892;2022-11-20T14:43:28;7.60;99.90
5200;DHT22;2619;47.868;11.892;2022-11-20T14:46:00;7.50;99.90
5200;DHT22;2619;47.868;11.892;2022-11-20T14:48:40;7.50;99.90
5200;DHT22;2619;47.868;11.892;2022-11-20T14:51:10;7.50;99.90
5200;DHT22;2619;47.868;11.892;2022-11-20T14:53:36;7.50;99.90
5200;DHT22;2619;47.868;11.892;2022-11-20T14:56:02;7.40;99.90
5200;DHT22;2619;47.868;11.892;2022-11-20T14:58:30;7.40;99.90
5200;DHT22;2619;47.868;11.892;2022-11-20T15:01:19;7.40;99.90
5200;DHT22;2619;47.868;11.892;2022-11-20T15:04:08;7.20;99.90
5200;DHT22;2619;47.868;11.892;2022-11-20T15:06:34;7.20;99.90
5200;DHT22;2619;47.868;11.892;2022-11-20T15:09:12;7.20;99.90
5200;DHT22;2619;47.868;11.892;2022-11-20T15:11:38;7.20;99.90
5200;DHT22;2619;47.868;11.892;2022-11-20T15:14:08;7.20;99.90
5200;DHT22;2619;47.868;11.892;2022-11-20T15:16:34;7.10;99.90
5200;DHT22;2619;47.868;11.892;2022-11-20T15:19:00;7.10;99.90
5200;DHT22;2619;47.868;11.892;2022-11-20T15:21:27;7.00;99.90
5200;DHT22;2619;47.868;11.892;2022-11-20T15:23:53;7.00;99.90
5200;DHT22;2619;47.868;11.892;2022-11-20T15:26:25;6.90;99.90
5200;DHT22;2619;47.868;11.892;2022-11-20T15:28:52;6.80;99.90
5200;DHT22;2619;47.868;11.892;2022-11-20T15:31:21;6.70;99.90
5200;DHT22;2619;47.868;11.892;2022-11-20T15:33:47;6.70;99.90
5200;DHT22;2619;47.868;11.892;2022-11-20T15:36:13;6.60;99.90
5200;DHT22;2619;47.868;11.892;2022-11-20T15:38:39;6.70;99.90
5200;DHT22;2619;47.868;11.892;2022-11-20T15:41:05;6.70;99.90
5200;DHT22;2619;47.868;11.892;2022-11-20T15:43:30;6.70;99.90
5200;DHT22;2619;47.868;11.892;2022-11-20T15:46:05;6.70;99.90
5200;DHT22;2619;47.868;11.892;2022-11-20T15:48:43;6.60;99.90
5200;DHT22;2619;47.868;11.892;2022-11-20T15:53:35;6.60;99.90
5200;DHT22;2619;47.868;11.892;2022-11-20T15:56:01;6.50;99.90
5200;DHT22;2619;47.868;11.892;2022-11-20T15:58:27;6.50;99.90
5200;DHT22;2619;47.868;11.892;2022-11-20T16:00:52;6.50;99.90
5200;DHT22;2619;47.868;11.892;2022-11-20T16:03:19;6.50;99.90
5200;DHT22;2619;47.868;11.892;2022-11-20T16:05:45;6.40;99.90
5200;DHT22;2619;47.868;11.892;2022-11-20T16:08:10;6.30;99.90
5200;DHT22;2619;47.868;11.892;2022-11-20T16:10:36;6.30;99.90
5200;DHT22;2619;47.868;11.892;2022-11-20T16:13:03;6.20;99.90
5200;DHT22;2619;47.868;11.892;2022-11-20T16:15:52;6.20;99.90
5200;DHT22;2619;47.868;11.892;2022-11-20T16:18:20;6.20;99.90
5200;DHT22;2619;47.868;11.892;2022-11-20T16:20:51;6.30;99.90
5200;DHT22;2619;47.868;11.892;2022-11-20T16:23:17;6.30;99.90
5200;DHT22;2619;47.868;11.892;2022-11-20T16:25:43;6.20;99.90
5200;DHT22;2619;47.868;11.892;2022-11-20T16:28:10;6.30;99.90
5200;DHT22;2619;47.868;11.892;2022-11-20T16:30:36;6.20;99.90
5200;DHT22;2619;47.868;11.892;2022-11-20T16:33:02;6.20;99.90
5200;DHT22;2619;47.868;11.892;2022-11-20T16:35:29;6.10;99.90
5200;DHT22;2619;47.868;11.892;2022-11-20T16:37:55;6.10;99.90
5200;DHT22;2619;47.868;11.892;2022-11-20T16:40:22;6.10;99.90
5200;DHT22;2619;47.868;11.892;2022-11-20T16:42:47;6.00;99.90
5200;DHT22;2619;47.868;11.892;2022-11-20T16:45:13;5.90;99.90
5200;DHT22;2619;47.868;11.892;2022-11-20T16:47:39;5.70;99.90
5200;DHT22;2619;47.868;11.892;2022-11-20T16:50:06;5.60;99.90
5200;DHT22;2619;47.868;11.892;2022-11-20T16:52:32;5.40;99.90
5200;DHT22;2619;47.868;11.892;2022-11-20T16:54:57;5.30;99.90
5200;DHT22;2619;47.868;11.892;2022-11-20T16:57:23;5.10;99.90
5200;DHT22;2619;47.868;11.892;2022-11-20T16:59:49;4.90;99.90
5200;DHT22;2619;47.868;11.892;2022-11-20T17:02:15;4.70;99.90
5200;DHT22;2619;47.868;11.892;2022-11-20T17:04:40;4.60;99.90
5200;DHT22;2619;47.868;11.892;2022-11-20T17:07:07;4.40;99.90
5200;DHT22;2619;47.868;11.892;2022-11-20T17:09:33;4.20;99.90
5200;DHT22;2619;47.868;11.892;2022-11-20T17:11:59;4.10;99.90
5200;DHT22;2619;47.868;11.892;2022-11-20T17:14:25;4.00;99.90
5200;DHT22;2619;47.868;11.892;2022-11-20T17:19:19;3.80;99.90
5200;DHT22;2619;47.868;11.892;2022-11-20T17:21:44;3.60;99.90
5200;DHT22;2619;47.868;11.892;2022-11-20T17:24:11;3.50;99.90
5200;DHT22;2619;47.868;11.892;2022-11-20T17:26:39;3.40;99.90
5200;DHT22;2619;47.868;11.892;2022-11-20T17:29:07;3.40;99.90
5200;DHT22;2619;47.868;11.892;2022-11-20T17:31:35;3.30;99.90
5200;DHT22;2619;47.868;11.892;2022-11-20T17:34:03;3.20;99.90
5200;DHT22;2619;47.868;11.892;2022-11-20T17:36:29;3.10;99.90
5200;DHT22;2619;47.868;11.892;2022-11-20T17:38:55;3.00;99.90
5200;DHT22;2619;47.868;11.892;2022-11-20T17:41:22;3.00;99.90
5200;DHT22;2619;47.868;11.892;2022-11-20T17:43:48;2.90;99.90
5200;DHT22;2619;47.868;11.892;2022-11-20T17:46:19;2.80;99.90
5200;DHT22;2619;47.868;11.892;2022-11-20T17:48:46;2.70;99.90
5200;DHT22;2619;47.868;11.892;2022-11-20T17:51:20;2.60;99.90
5200;DHT22;2619;47.868;11.892;2022-11-20T17:53:49;2.50;99.90
5200;DHT22;2619;47.868;11.892;2022-11-20T17:56:15;2.40;99.90
5200;DHT22;2619;47.868;11.892;2022-11-20T17:59:02;2.30;99.90
5200;DHT22;2619;47.868;11.892;2022-11-20T18:01:28;2.30;99.90
5200;DHT22;2619;47.868;11.892;2022-11-20T18:03:55;2.10;99.90
5200;DHT22;2619;47.868;11.892;2022-11-20T18:06:23;1.90;99.90
5200;DHT22;2619;47.868;11.892;2022-11-20T18:08:50;1.90;99.90
5200;DHT22;2619;47.868;11.892;2022-11-20T18:11:20;1.80;99.90
5200;DHT22;2619;47.868;11.892;2022-11-20T18:13:49;1.80;99.90